Time;durP1;ratioP1;P1;durP2;ratioP2;P2;SDS_P1;SDS_P2;PMS_P1;PMS_P2;Temp;Humidity;BMP_temperature;BMP_pressure;BME280_temperature;BME280_humidity;BME280_pressure;Samples;Min_cycle;Max_cycle;Signal;HPM_P1;HPM_P2
2022/01/30 00:01:06;;;;;;;12.13;2.50;;;10.00;55.20;;;8.43;61.36;100445.19;8418865;28;20534;-78
2022/01/30 00:05:28;;;;;;;9.57;2.75;;;10.00;55.30;;;8.44;61.29;100429.47;8426221;28;20046;-78
2022/01/30 00:09:51;;;;;;;7.00;2.17;;;10.00;55.20;;;8.51;61.50;100445.63;8429873;28;20477;-79
2022/01/30 00:14:15;;;;;;;10.25;2.45;;;10.00;55.10;;;8.29;61.30;100405.06;8415842;28;20027;-79
2022/01/30 00:18:47;;;;;;;8.27;2.80;;;10.10;55.50;;;8.42;61.11;100439.09;8414422;28;20035;-79
2022/01/30 00:23:14;;;;;;;10.25;2.72;;;10.00;55.00;;;8.25;61.10;100423.50;8408704;28;20066;-79
2022/01/30 00:28:14;;;;;;;11.40;2.50;;;10.00;55.00;;;8.32;60.95;100436.13;8429390;28;20032;-79
2022/01/30 00:32:26;;;;;;;12.63;2.35;;;9.90;55.30;;;8.23;61.33;100420.94;8432037;28;20044;-79
2022/01/30 00:36:48;;;;;;;8.70;2.42;;;9.90;54.90;;;8.34;61.07;100434.25;8415170;28;20502;-78
2022/01/30 00:41:10;;;;;;;7.38;2.20;;;10.00;54.80;;;8.37;61.29;100456.66;8435697;28;20043;-80
2022/01/30 00:45:32;;;;;;;11.32;2.67;;;9.90;55.00;;;8.37;61.18;100454.06;8417988;28;20111;-79
2022/01/30 00:49:54;;;;;;;11.48;2.80;;;10.00;54.90;;;8.47;60.96;100441.47;8421195;28;20111;-80
2022/01/30 00:54:15;;;;;;;9.25;2.58;;;10.00;55.00;;;8.30;60.99;100404.13;8416747;28;20122;-80
2022/01/30 00:58:37;;;;;;;8.25;1.90;;;10.00;55.20;;;8.53;61.00;100426.41;8420537;28;20690;-80
2022/01/30 01:03:00;;;;;;;9.00;2.72;;;10.00;55.20;;;8.51;60.95;100417.00;8434321;28;20469;-80
2022/01/30 01:07:23;;;;;;;15.73;3.28;;;10.00;54.80;;;8.49;60.60;100424.03;8462255;28;20111;-80
2022/01/30 01:25:46;;;;;;;8.00;1.85;;;10.00;54.90;;;8.41;60.59;100390.59;8436118;28;20119;-80
2022/01/30 01:30:08;;;;;;;5.25;2.00;;;10.00;54.90;;;8.09;60.80;100353.19;8423771;28;20119;-79
2022/01/30 01:34:41;;;;;;;4.15;1.77;;;10.00;54.70;;;8.43;60.76;100421.75;8460105;28;20580;-79
2022/01/30 01:39:04;;;;;;;8.75;2.40;;;10.00;55.00;;;8.45;60.77;100449.34;8420035;28;20038;-80
2022/01/30 01:43:27;;;;;;;5.50;1.50;;;10.00;54.80;;;8.48;60.52;100431.00;8394308;28;20455;-81
2022/01/30 01:47:50;;;;;;;10.73;3.10;;;10.00;54.70;;;8.35;60.41;100394.31;8407416;28;20440;-80
2022/01/30 01:56:39;;;;;;;6.72;1.70;;;10.00;54.80;;;8.51;60.65;100367.56;8416039;28;20118;-80
2022/01/30 02:01:24;;;;;;;6.88;1.88;;;10.10;54.70;;;8.52;60.43;100358.81;8429133;28;20031;-81
2022/01/30 02:05:52;;;;;;;6.28;2.20;;;10.10;54.50;;;8.11;60.46;100300.19;8413515;28;20111;-79
2022/01/30 02:10:25;;;;;;;9.13;2.15;;;10.00;54.50;;;8.49;60.29;100359.81;8395356;28;20044;-80
2022/01/30 02:24:13;;;;;;;9.07;2.22;;;10.10;54.10;;;8.57;60.37;100367.22;8412834;28;20110;-80
2022/01/30 02:28:36;;;;;;;5.50;2.20;;;10.10;54.60;;;8.41;60.34;100373.22;8415509;28;20115;-80
2022/01/30 02:32:58;;;;;;;6.68;2.00;;;10.00;54.70;;;8.51;60.56;100398.78;8425421;28;20185;-79
2022/01/30 02:37:21;;;;;;;11.25;2.90;;;10.10;54.80;;;8.42;60.46;100353.25;8418921;28;20127;-80
2022/01/30 02:41:43;;;;;;;9.52;2.47;;;10.00;54.40;;;8.48;60.20;100383.31;8417205;28;20126;-79
2022/01/30 02:46:10;;;;;;;11.65;2.25;;;10.10;54.50;;;8.52;60.13;100423.88;8411014;28;20506;-79
2022/01/30 02:55:12;;;;;;;7.40;2.45;;;10.10;54.00;;;8.50;60.05;100403.13;8416640;28;20114;-80
2022/01/30 02:59:34;;;;;;;8.63;1.98;;;10.10;54.00;;;8.44;59.97;100366.19;8439747;28;20111;-80
2022/01/30 03:03:56;;;;;;;8.95;2.40;;;10.10;54.10;;;8.55;60.23;100380.31;8427831;28;20115;-80
2022/01/30 03:08:18;;;;;;;6.43;1.83;;;10.10;53.50;;;8.54;59.66;100367.38;8406795;28;20132;-80
2022/01/30 03:12:39;;;;;;;9.02;3.00;;;10.10;53.80;;;8.53;59.68;100365.69;8399321;28;20119;-80
2022/01/30 03:17:01;;;;;;;8.68;2.50;;;10.10;53.40;;;8.44;59.67;100368.78;8380738;28;20131;-81
2022/01/30 03:21:23;;;;;;;6.25;2.00;;;10.10;54.10;;;8.56;59.57;100388.94;8419307;28;20119;-80
2022/01/30 03:25:45;;;;;;;8.15;2.53;;;10.10;54.10;;;8.53;59.51;100391.72;8412247;28;20114;-80
2022/01/30 03:30:29;;;;;;;5.68;2.03;;;10.10;53.60;;;8.57;59.55;100407.09;8399718;28;20106;-80
2022/01/30 03:35:00;;;;;;;10.07;2.30;;;10.10;53.70;;;8.49;59.49;100421.44;8431615;28;20579;-80
2022/01/30 03:39:23;;;;;;;6.20;2.03;;;10.10;53.90;;;8.40;59.83;100402.78;8420279;28;20122;-80
2022/01/30 03:43:45;;;;;;;6.85;2.30;;;10.10;54.10;;;8.44;59.85;100400.84;8434288;28;20171;-80
2022/01/30 03:48:09;;;;;;;6.70;1.92;;;10.10;54.30;;;8.32;59.73;100352.03;8425506;28;20115;-80
2022/01/30 03:52:47;;;;;;;5.38;2.35;;;10.00;54.00;;;8.32;59.67;100381.47;8408569;28;20115;-80
2022/01/30 03:57:14;;;;;;;9.70;2.47;;;10.00;53.90;;;8.27;59.65;100362.66;8408970;28;20119;-80
2022/01/30 04:01:38;;;;;;;9.68;2.72;;;9.90;53.90;;;8.16;59.34;100364.97;8423261;28;20039;-80
2022/01/30 04:06:00;;;;;;;6.72;2.80;;;9.90;54.00;;;8.22;59.71;100361.22;8393245;28;20110;-80
2022/01/30 04:10:23;;;;;;;7.97;2.92;;;9.90;54.00;;;8.18;59.66;100337.97;8430772;28;20126;-81
2022/01/30 04:15:09;;;;;;;12.30;3.28;;;9.90;54.20;;;8.27;59.91;100396.47;8439308;28;20111;-80
2022/01/30 04:19:51;;;;;;;11.18;3.13;;;9.90;54.30;;;8.21;59.80;100402.00;8405736;28;20052;-79
2022/01/30 04:24:36;;;;;;;8.45;2.60;;;9.80;55.00;;;8.06;59.82;100445.22;8427143;28;20575;-80
2022/01/30 04:29:32;;;;;;;5.78;1.88;;;9.80;55.30;;;7.91;59.91;100414.75;8417984;28;20118;-80
2022/01/30 04:34:09;;;;;;;5.40;1.67;;;9.60;55.50;;;7.80;60.02;100417.88;8397059;28;20110;-80
2022/01/30 04:59:07;;;;;;;8.13;1.77;;;9.10;55.70;;;7.68;60.27;100402.88;8338435;28;20063;-80
2022/01/30 05:03:52;;;;;;;13.98;2.65;;;9.20;55.40;;;7.75;60.30;100425.06;8379855;28;20131;-80
2022/01/30 05:08:28;;;;;;;7.72;2.38;;;9.30;55.40;;;7.63;60.00;100399.66;8448544;28;20123;-80
2022/01/30 05:13:18;;;;;;;7.90;2.40;;;9.30;55.30;;;7.75;59.98;100436.31;8404959;28;20110;-80
2022/01/30 05:18:05;;;;;;;6.35;2.40;;;9.30;55.20;;;7.49;60.42;100344.00;8424815;28;20185;-81
2022/01/30 05:22:39;;;;;;;7.00;2.20;;;9.30;55.20;;;7.68;60.00;100406.31;8417956;28;20046;-80
2022/01/30 05:27:21;;;;;;;8.05;1.80;;;9.30;55.40;;;7.77;60.26;100431.03;8395089;28;20123;-81
2022/01/30 05:31:57;;;;;;;5.85;1.95;;;9.40;55.40;;;7.75;60.25;100436.31;8416697;28;20114;-81
2022/01/30 05:36:30;;;;;;;6.30;2.15;;;9.30;55.40;;;7.58;60.51;100406.84;8434520;28;20123;-80
2022/01/30 05:41:13;;;;;;;7.57;2.17;;;9.30;55.40;;;7.71;60.10;100437.34;8414017;28;20050;-81
2022/01/30 05:46:18;;;;;;;4.97;2.10;;;9.30;55.10;;;7.68;60.24;100405.50;8418159;28;20111;-80
2022/01/30 05:50:48;;;;;;;5.32;1.80;;;9.30;55.10;;;7.72;60.52;100415.66;8420979;28;20119;-80
2022/01/30 05:55:20;;;;;;;12.48;2.42;;;9.30;55.10;;;7.63;60.16;100400.50;8431245;28;20127;-80
2022/01/30 05:59:41;;;;;;;6.70;2.00;;;9.30;54.60;;;7.66;59.87;100428.09;8402292;28;20138;-80
2022/01/30 06:04:12;;;;;;;7.20;2.22;;;9.30;55.10;;;7.70;60.36;100425.28;8403069;28;20122;-80
2022/01/30 06:13:02;;;;;;;7.10;1.80;;;9.20;54.90;;;7.61;60.10;100428.31;8383803;28;20123;-80
2022/01/30 06:17:24;;;;;;;11.07;2.20;;;9.20;55.10;;;7.60;60.32;100420.59;8429100;28;20465;-81
2022/01/30 06:22:05;;;;;;;8.73;2.42;;;9.20;54.70;;;7.64;59.78;100440.31;8441777;28;20119;-81
2022/01/30 06:26:46;;;;;;;10.35;2.33;;;9.20;55.00;;;7.47;60.15;100382.22;8437674;28;20552;-80
2022/01/30 06:31:27;;;;;;;9.20;2.80;;;9.20;54.70;;;7.52;59.97;100390.63;8439292;28;20118;-80
2022/01/30 06:36:07;;;;;;;11.25;2.47;;;9.20;54.70;;;7.64;59.84;100402.22;8444085;28;20114;-80
2022/01/30 06:40:37;;;;;;;15.68;2.63;;;9.20;54.60;;;7.65;59.85;100384.84;8413972;28;20119;-81
2022/01/30 06:45:02;;;;;;;11.43;2.63;;;9.20;54.40;;;7.74;59.83;100424.22;8406717;28;20119;-80
2022/01/30 06:49:51;;;;;;;9.77;2.70;;;9.30;54.30;;;7.79;60.15;100400.59;8394040;28;20115;-80
2022/01/30 06:54:44;;;;;;;12.30;2.80;;;9.20;53.70;;;7.68;59.54;100408.91;8416373;28;20135;-80
2022/01/30 06:59:25;;;;;;;11.55;2.38;;;9.20;53.90;;;7.65;59.71;100419.47;8449988;28;20126;-81
2022/01/30 07:04:06;;;;;;;12.10;3.30;;;9.30;54.40;;;7.78;59.76;100434.44;8386638;28;20127;-80
2022/01/30 07:08:47;;;;;;;7.45;2.50;;;9.40;54.10;;;7.81;59.65;100440.38;8425586;28;20119;-82
2022/01/30 07:13:11;;;;;;;5.75;1.90;;;9.40;54.20;;;7.63;59.55;100420.47;8444242;28;20041;-80
2022/01/30 07:17:32;;;;;;;8.55;2.25;;;9.40;54.30;;;7.92;59.45;100463.25;8396372;28;20053;-82
2022/01/30 07:21:54;;;;;;;16.35;3.08;;;9.50;54.30;;;7.76;59.54;100448.38;8394726;28;20044;-81
2022/01/30 07:26:16;;;;;;;9.82;2.63;;;9.40;53.70;;;7.50;59.12;100409.78;8403204;28;20443;-82
2022/01/30 07:30:38;;;;;;;11.20;2.50;;;9.50;53.80;;;7.85;59.52;100477.44;8411077;28;20047;-83
2022/01/30 07:34:59;;;;;;;8.20;2.45;;;9.50;53.50;;;8.02;59.50;100500.03;8375486;28;20040;-81
2022/01/30 07:39:21;;;;;;;8.77;2.63;;;9.60;53.60;;;8.09;59.11;100507.47;8404324;28;20115;-82
2022/01/30 07:43:43;;;;;;;9.10;2.47;;;10.00;53.30;;;8.00;59.21;100509.69;8403567;28;20053;-80
2022/01/30 07:48:05;;;;;;;8.48;2.67;;;9.70;52.90;;;8.09;58.98;100522.22;8388613;28;20127;-81
2022/01/30 07:52:27;;;;;;;8.07;2.92;;;9.60;52.70;;;8.04;59.24;100524.22;8401841;28;20119;-81
2022/01/30 07:56:48;;;;;;;9.93;3.60;;;9.70;53.30;;;8.17;58.93;100566.91;8408216;28;20062;-81
2022/01/30 08:01:10;;;;;;;10.65;2.78;;;9.70;53.20;;;8.17;59.11;100566.91;8402488;28;20037;-81
2022/01/30 08:05:32;;;;;;;9.88;2.25;;;9.70;53.00;;;8.16;58.93;100578.25;8382024;28;20028;-81
2022/01/30 08:09:54;;;;;;;10.52;2.47;;;9.80;53.30;;;8.16;58.76;100578.25;8387570;28;20056;-81
2022/01/30 08:14:15;;;;;;;10.18;3.28;;;9.80;52.90;;;8.24;58.99;100614.31;8388370;28;20036;-81
2022/01/30 08:18:38;;;;;;;11.35;2.85;;;9.80;53.40;;;8.24;58.66;100628.16;8384912;28;20407;-81
2022/01/30 08:23:01;;;;;;;9.18;2.50;;;9.70;53.20;;;8.22;58.64;100636.94;8424088;28;20051;-81
2022/01/30 08:27:23;;;;;;;8.10;2.53;;;9.90;53.40;;;7.81;58.77;100574.69;8414386;28;20036;-81
2022/01/30 08:31:44;;;;;;;7.88;2.20;;;9.80;53.40;;;8.11;58.55;100624.44;8388778;28;20058;-82
2022/01/30 08:36:06;;;;;;;11.32;4.07;;;9.80;53.50;;;8.04;59.00;100612.63;8388738;28;20036;-82
2022/01/30 08:40:28;;;;;;;10.32;2.60;;;9.80;53.80;;;8.18;58.69;100649.22;8374745;28;20044;-82
2022/01/30 08:44:49;;;;;;;15.82;3.67;;;9.80;53.70;;;8.15;58.58;100652.81;8401119;28;20028;-82
2022/01/30 08:49:13;;;;;;;8.65;2.75;;;9.80;53.50;;;8.16;58.75;100677.09;8421159;28;20032;-81
2022/01/30 08:53:35;;;;;;;14.70;3.20;;;9.70;53.70;;;8.15;58.96;100675.38;8438849;28;20046;-82
2022/01/30 08:57:57;;;;;;;11.23;2.78;;;9.70;53.30;;;8.20;58.71;100709.84;8428259;28;20048;-83
2022/01/30 09:02:19;;;;;;;10.85;2.92;;;9.70;53.10;;;8.15;58.88;100715.22;8418722;28;20903;-82
2022/01/30 09:06:41;;;;;;;8.50;3.17;;;9.80;53.20;;;8.23;58.90;100732.25;8415221;28;20512;-82
2022/01/30 09:11:05;;;;;;;10.65;2.45;;;9.70;53.30;;;7.96;58.49;100681.41;8443585;28;20040;-82
2022/01/30 09:15:27;;;;;;;11.68;2.58;;;9.80;53.00;;;8.28;58.29;100736.34;8441735;28;20042;-83
2022/01/30 09:19:49;;;;;;;8.55;2.08;;;9.80;52.80;;;8.32;58.39;100727.50;8430479;28;20045;-81
2022/01/30 09:24:11;;;;;;;8.00;2.35;;;9.90;53.00;;;8.38;58.69;100742.81;8399389;28;20048;-84
2022/01/30 09:28:32;;;;;;;6.70;2.10;;;9.90;52.80;;;8.35;58.43;100714.34;8405742;28;20412;-85
2022/01/30 09:32:54;;;;;;;12.43;3.05;;;10.00;53.20;;;8.42;58.32;100743.53;8418108;28;20040;-80
2022/01/30 09:37:17;;;;;;;10.93;2.75;;;10.10;52.80;;;8.50;58.59;100761.41;8413400;28;20551;-82
2022/01/30 09:41:43;;;;;;;10.20;2.05;;;10.10;53.10;;;8.34;58.25;100746.47;8392694;28;20849;-83
2022/01/30 09:46:05;;;;;;;15.07;3.90;;;10.20;52.90;;;8.37;58.25;100766.28;8412678;28;20042;-83
2022/01/30 09:50:28;;;;;;;7.90;2.10;;;10.10;52.50;;;8.63;57.97;100807.63;8395220;28;20043;-80
2022/01/30 09:54:50;;;;;;;7.60;2.58;;;10.30;52.70;;;8.60;58.18;100828.59;8369712;28;20050;-81
2022/01/30 09:59:12;;;;;;;10.18;2.67;;;10.20;53.00;;;8.57;58.56;100796.66;8417885;28;20050;-81
2022/01/30 10:03:34;;;;;;;8.70;2.58;;;10.20;52.30;;;8.62;58.04;100839.78;8415269;28;20047;-87
2022/01/30 10:07:57;;;;;;;7.57;2.42;;;10.20;52.50;;;8.64;58.29;100863.13;8414555;28;20034;-80
2022/01/30 10:12:22;;;;;;;12.85;3.22;;;10.30;52.50;;;8.52;57.87;100833.28;8404257;28;20042;-79
2022/01/30 10:16:49;;;;;;;7.68;2.40;;;10.10;52.10;;;8.61;57.98;100856.34;8449396;28;20042;-80
2022/01/30 10:21:21;;;;;;;13.65;3.33;;;10.10;52.10;;;8.43;57.94;100817.28;8422899;28;20500;-82
2022/01/30 10:25:53;;;;;;;9.93;2.67;;;10.20;52.00;;;8.59;57.83;100896.34;8393918;28;20052;-79
2022/01/30 10:30:21;;;;;;;13.05;3.30;;;10.20;51.80;;;8.69;57.26;100878.56;8404081;28;20371;-79
2022/01/30 10:35:05;;;;;;;8.65;2.85;;;10.30;51.80;;;8.72;57.53;100894.03;8408830;28;20048;-82
2022/01/30 10:39:31;;;;;;;14.07;3.38;;;10.30;51.50;;;8.71;57.71;100902.75;8417282;28;20492;-80
2022/01/30 10:43:56;;;;;;;12.45;3.13;;;10.20;51.90;;;8.79;57.46;100909.31;8447391;28;20043;-80
2022/01/30 10:48:21;;;;;;;7.72;2.42;;;10.20;51.90;;;8.74;57.60;100916.47;8412743;28;20446;-83
2022/01/30 10:52:53;;;;;;;10.32;2.72;;;10.30;52.00;;;8.76;57.54;100924.25;8411180;28;20728;-87
2022/01/30 10:57:15;;;;;;;11.35;3.35;;;10.40;51.70;;;8.69;57.42;100902.81;8397563;28;20047;-81
2022/01/30 11:01:39;;;;;;;11.60;2.53;;;10.40;51.90;;;8.61;57.58;100900.59;8402111;28;20050;-79
2022/01/30 11:06:01;;;;;;;9.35;2.92;;;10.40;52.10;;;8.75;57.39;100944.22;8410606;28;20043;-85
2022/01/30 11:10:25;;;;;;;19.85;3.55;;;10.40;52.20;;;8.74;57.33;100941.69;8432569;28;20048;-85
2022/01/30 11:19:11;;;;;;;12.52;2.80;;;10.40;51.70;;;8.78;57.34;100964.06;8419325;28;20039;-82
2022/01/30 11:23:33;;;;;;;9.90;3.13;;;10.40;51.70;;;8.79;57.30;100971.81;8426605;28;20039;-83
2022/01/30 11:27:55;;;;;;;13.20;3.88;;;10.40;51.70;;;8.70;57.00;100943.59;8406888;28;20407;-83
2022/01/30 11:32:21;;;;;;;11.13;3.13;;;10.40;51.50;;;8.76;57.27;100966.72;8395395;28;20044;-82
2022/01/30 11:36:45;;;;;;;;;;;10.40;51.80;;;8.70;57.20;100940.97;8398007;28;20247;-82
2022/01/30 11:41:19;;;;;;;15.45;2.95;;;10.30;50.60;;;8.69;57.16;100975.72;8385765;28;19916;-82
2022/01/30 11:45:40;;;;;;;9.82;3.15;;;10.30;51.50;;;8.72;57.39;100967.78;8404010;28;20046;-81
2022/01/30 11:50:08;;;;;;;13.05;3.55;;;10.40;51.40;;;8.88;56.96;101001.78;8419343;28;20040;-81
2022/01/30 11:54:41;;;;;;;12.10;2.85;;;10.40;51.20;;;8.90;57.05;101009.56;8445217;28;20044;-81
2022/01/30 11:59:06;;;;;;;12.57;3.15;;;10.40;51.50;;;8.86;57.19;100982.81;8413077;28;20047;-81
2022/01/30 12:03:35;;;;;;;12.77;3.38;;;10.50;51.40;;;9.00;57.21;101013.47;8403546;28;20564;-82
2022/01/30 12:07:57;;;;;;;11.80;3.00;;;10.50;50.90;;;8.95;56.99;100984.16;8427634;28;20044;-84
2022/01/30 12:12:50;;;;;;;15.18;3.17;;;10.50;51.50;;;9.01;56.83;101018.59;8400224;28;20047;-83
2022/01/30 12:17:12;;;;;;;10.98;3.25;;;10.50;50.80;;;9.07;56.95;101040.91;8382515;28;20036;-82
2022/01/30 12:21:34;;;;;;;16.85;4.55;;;10.60;51.60;;;8.89;56.65;101000.06;8425454;28;20052;-83
2022/01/30 12:26:06;;;;;;;13.38;2.80;;;10.60;51.50;;;8.97;56.63;101011.00;8419156;28;20170;-82
2022/01/30 12:30:42;;;;;;;11.38;2.83;;;10.70;51.20;;;8.98;57.20;101036.13;8377035;28;20047;-82
2022/01/30 12:35:04;;;;;;;15.05;3.28;;;10.60;51.30;;;8.92;56.59;101015.56;8385308;28;20048;-84
2022/01/30 12:39:26;;;;;;;10.23;3.42;;;10.70;51.10;;;8.95;56.96;101034.50;8424613;28;20403;-86
2022/01/30 12:43:55;;;;;;;18.70;5.03;;;10.60;51.40;;;8.93;56.58;101032.84;8433842;28;20043;-85
2022/01/30 12:48:16;;;;;;;11.48;3.58;;;10.60;50.60;;;9.02;56.67;101046.34;8424612;28;20514;-90
2022/01/30 12:52:39;;;;;;;10.80;3.97;;;10.50;50.20;;;9.08;56.61;101068.66;8422282;28;20036;-85
2022/01/30 12:57:01;;;;;;;12.02;2.92;;;10.50;50.80;;;9.08;56.30;101056.50;8421470;28;20050;-81
2022/01/30 13:01:27;;;;;;;12.75;3.40;;;10.60;51.10;;;9.03;56.56;101053.22;8399595;28;20042;-80
2022/01/30 13:05:50;;;;;;;;;;;10.70;50.80;;;9.12;56.40;101083.25;8395433;28;20035;-81
2022/01/30 13:10:13;;;;;;;11.52;3.03;;;10.70;51.00;;;9.16;57.19;101083.97;8426951;28;19916;-81
2022/01/30 13:14:37;;;;;;;13.02;3.65;;;10.70;50.80;;;9.09;56.64;101072.97;8418611;28;20050;-80
2022/01/30 13:19:01;;;;;;;6.63;2.53;;;10.70;51.00;;;9.14;56.61;101086.63;8419933;28;20506;-80
2022/01/30 13:23:26;;;;;;;7.18;2.75;;;10.60;51.40;;;9.13;56.29;101079.75;8432720;28;20039;-80
2022/01/30 13:27:51;;;;;;;10.25;3.13;;;10.80;51.20;;;9.22;56.17;101086.31;8423886;28;20040;-80
2022/01/30 13:32:13;;;;;;;21.15;3.83;;;10.80;51.00;;;9.20;56.62;101080.31;8389450;28;20042;-81
2022/01/30 13:36:35;;;;;;;11.65;3.53;;;10.80;50.70;;;9.10;55.97;101090.31;8427022;28;20044;-80
2022/01/30 13:41:02;;;;;;;16.42;3.75;;;10.80;50.90;;;8.62;55.88;101015.97;8405699;28;20589;-80
2022/01/30 13:49:58;;;;;;;9.93;2.58;;;10.80;50.70;;;9.22;56.37;101108.00;8416966;28;20038;-81
2022/01/30 13:54:24;;;;;;;18.48;3.58;;;10.80;51.20;;;9.33;55.80;101136.19;8392298;28;20037;-81
2022/01/30 13:58:50;;;;;;;17.55;3.92;;;10.90;50.70;;;9.19;56.21;101115.94;8389873;28;20039;-81
2022/01/30 14:03:26;;;;;;;8.80;2.65;;;10.90;50.70;;;9.30;56.02;101154.56;8402010;28;20042;-81
2022/01/30 14:07:48;;;;;;;8.82;3.67;;;10.90;50.90;;;9.28;56.22;101149.41;8425982;28;20063;-81
2022/01/30 14:12:11;;;;;;;9.18;3.35;;;10.90;50.80;;;9.23;55.91;101142.72;8422799;28;20040;-82
2022/01/30 14:16:50;;;;;;;14.63;2.33;;;10.90;50.80;;;9.17;56.00;101163.81;8403933;28;20492;-81
2022/01/30 14:21:17;;;;;;;7.65;2.70;;;10.80;50.70;;;9.13;56.21;101175.28;8388591;28;20054;-81
2022/01/30 14:25:45;;;;;;;9.75;2.60;;;10.70;50.80;;;9.09;55.77;101167.59;8389046;28;20526;-80
2022/01/30 14:30:10;;;;;;;12.27;3.53;;;10.60;50.70;;;9.20;55.75;101195.78;8385380;28;20047;-81
2022/01/30 14:34:32;;;;;;;11.90;3.67;;;10.80;50.90;;;9.03;55.75;101187.84;8401666;28;20044;-80
2022/01/30 14:38:53;;;;;;;18.88;3.50;;;10.70;50.60;;;9.08;55.73;101196.31;8389785;28;20290;-81
2022/01/30 14:43:16;;;;;;;6.47;2.67;;;10.60;50.20;;;8.82;55.61;101193.00;8389126;28;20036;-81
2022/01/30 14:47:38;;;;;;;8.68;2.60;;;10.60;51.20;;;8.97;55.76;101220.22;8380438;28;20035;-81
2022/01/30 14:52:00;;;;;;;12.55;3.50;;;10.70;51.00;;;8.89;55.64;101191.03;8393282;28;20605;-81
2022/01/30 14:56:22;;;;;;;11.77;3.03;;;10.60;50.90;;;9.06;55.98;101247.63;8374144;28;20039;-81
2022/01/30 15:00:44;;;;;;;13.20;2.85;;;10.50;50.60;;;9.06;55.96;101255.44;8399485;28;20043;-81
2022/01/30 15:05:06;;;;;;;12.70;3.03;;;10.60;50.70;;;8.99;55.64;101240.97;8386839;28;20040;-80
2022/01/30 15:09:31;;;;;;;10.57;3.50;;;10.60;50.40;;;8.93;55.59;101236.00;8378468;28;20039;-82
2022/01/30 15:13:52;;;;;;;14.25;3.80;;;10.60;50.60;;;9.00;56.01;101246.13;8401306;28;20040;-80
2022/01/30 15:18:22;;;;;;;8.88;2.92;;;10.50;51.00;;;9.01;55.82;101267.81;8414480;28;20036;-82
2022/01/30 15:22:45;;;;;;;15.15;3.67;;;10.60;51.00;;;8.84;55.51;101243.28;8402605;28;20036;-81
2022/01/30 15:27:07;;;;;;;13.45;3.88;;;10.50;50.50;;;8.93;55.78;101275.09;8386697;28;20058;-81
2022/01/30 15:31:29;;;;;;;14.23;2.80;;;10.50;50.40;;;8.91;55.39;101287.31;8408020;28;20796;-80
2022/01/30 15:35:52;;;;;;;11.88;2.80;;;10.40;50.90;;;8.82;55.61;101275.50;8403880;28;20069;-81
2022/01/30 15:40:14;;;;;;;14.23;3.47;;;10.40;50.50;;;8.81;55.48;101282.47;8389592;28;20040;-80
2022/01/30 15:49:14;;;;;;;8.38;2.28;;;10.40;50.60;;;8.80;55.98;101292.94;8381505;28;20040;-80
2022/01/30 15:53:35;;;;;;;12.65;3.88;;;10.40;51.00;;;8.72;55.68;101282.84;8400792;28;20046;-80
2022/01/30 15:57:57;;;;;;;11.95;2.53;;;10.30;50.70;;;8.70;55.63;101297.66;8389964;28;20046;-79
2022/01/30 16:02:19;;;;;;;10.82;4.32;;;10.30;50.70;;;8.68;55.76;101301.22;8395908;28;20047;-79
2022/01/30 16:06:43;;;;;;;11.65;3.08;;;10.30;50.40;;;8.75;55.90;101316.56;8405637;28;20412;-80
2022/01/30 16:11:22;;;;;;;6.22;2.25;;;10.20;50.80;;;8.73;55.25;101312.31;8422131;28;20036;-80
2022/01/30 16:15:44;;;;;;;9.93;3.00;;;10.20;50.80;;;8.60;55.75;101301.50;8394361;28;20035;-81
2022/01/30 16:20:06;;;;;;;10.45;2.92;;;10.30;50.90;;;8.62;55.72;101320.53;8401273;28;20052;-80
2022/01/30 16:24:28;;;;;;;13.75;2.85;;;10.30;51.00;;;8.66;55.78;101345.53;8408800;28;20040;-80
2022/01/30 16:28:53;;;;;;;13.68;2.95;;;10.20;50.90;;;8.23;55.55;101263.81;8393525;28;20455;-81
2022/01/30 16:33:14;;;;;;;7.85;2.40;;;10.20;50.70;;;8.54;55.68;101314.78;8409721;28;20044;-81
2022/01/30 16:37:36;;;;;;;12.65;2.95;;;10.20;50.70;;;8.64;55.83;101343.00;8393675;28;20048;-80
2022/01/30 16:41:58;;;;;;;10.00;3.15;;;10.20;50.90;;;8.56;55.47;101318.13;8406137;28;20048;-82
2022/01/30 16:50:49;;;;;;;12.18;3.33;;;10.10;50.60;;;8.38;55.64;101315.28;8409016;28;20681;-81
2022/01/30 16:55:11;;;;;;;12.55;3.13;;;10.10;50.60;;;8.48;55.67;101346.22;8405720;28;20047;-81
2022/01/30 16:59:33;;;;;;;10.90;3.35;;;10.10;50.50;;;8.54;55.23;101364.22;8419267;28;20050;-80
2022/01/30 17:03:55;;;;;;;12.90;3.15;;;10.10;50.50;;;8.44;55.42;101347.25;8403423;28;20036;-81
2022/01/30 17:08:19;;;;;;;11.25;2.85;;;9.90;50.40;;;8.47;55.37;101358.38;8387468;28;20036;-81
2022/01/30 17:17:20;;;;;;;11.75;2.95;;;10.00;50.40;;;8.30;55.61;101361.56;8399791;28;20519;-80
2022/01/30 17:21:42;;;;;;;7.28;2.13;;;10.00;50.00;;;8.34;55.48;101376.16;8401939;28;20049;-80
2022/01/30 17:26:03;;;;;;;9.93;2.65;;;9.90;50.40;;;8.22;55.42;101355.78;8417062;28;20062;-80
2022/01/30 17:30:27;;;;;;;8.80;3.10;;;9.90;50.20;;;8.22;55.06;101360.97;8391943;28;20040;-81
2022/01/30 17:34:48;;;;;;;12.68;2.90;;;9.90;50.10;;;8.25;55.33;101373.03;8399886;28;20040;-81
2022/01/30 17:39:10;;;;;;;8.48;2.20;;;9.90;50.10;;;8.23;55.69;101383.47;8402066;28;20039;-82
2022/01/30 17:43:32;;;;;;;11.15;2.75;;;9.80;50.40;;;8.21;55.09;101390.53;8397047;28;20050;-80
2022/01/30 17:47:57;;;;;;;7.43;2.50;;;9.80;50.10;;;8.28;55.33;101404.16;8399854;28;20040;-80
2022/01/30 17:52:18;;;;;;;11.33;2.37;;;9.80;50.00;;;8.22;54.95;101413.03;8398929;28;20040;-81
2022/01/30 17:56:40;;;;;;;6.90;2.58;;;9.80;50.20;;;8.22;54.88;101427.78;8402815;28;20055;-81
2022/01/30 18:01:02;;;;;;;6.75;2.35;;;9.60;49.80;;;8.15;54.98;101414.97;8387099;28;20042;-80
2022/01/30 18:05:24;;;;;;;9.93;2.45;;;9.70;50.00;;;8.08;55.08;101392.69;8376589;28;20401;-81
2022/01/30 18:09:46;;;;;;;5.90;2.15;;;9.70;50.20;;;8.16;55.02;101413.25;8390046;28;20044;-81
2022/01/30 18:14:08;;;;;;;7.90;2.65;;;9.70;50.20;;;8.17;55.01;101427.94;8403032;28;20046;-81
2022/01/30 18:18:32;;;;;;;7.97;1.88;;;9.70;49.70;;;8.00;55.04;101407.69;8412981;28;20040;-81
2022/01/30 18:22:54;;;;;;;7.55;2.78;;;9.70;50.40;;;8.09;55.06;101416.94;8388876;28;20044;-81
2022/01/30 18:27:18;;;;;;;7.30;2.05;;;9.80;50.30;;;8.08;55.02;101429.09;8383787;28;20038;-80
2022/01/30 18:31:39;;;;;;;8.95;2.17;;;9.70;50.10;;;7.98;55.15;101423.34;8393801;28;20032;-80
2022/01/30 18:36:07;;;;;;;7.88;1.90;;;9.60;50.10;;;8.02;54.79;101425.84;8364397;28;20032;-81
2022/01/30 18:40:45;;;;;;;11.90;2.63;;;9.60;50.30;;;7.86;55.10;101405.56;8410876;28;20508;-81
2022/01/30 18:45:07;;;;;;;9.55;2.95;;;9.40;49.60;;;7.91;54.61;101434.88;8408053;28;20040;-81
2022/01/30 18:49:29;;;;;;;8.30;2.10;;;9.50;49.60;;;7.93;55.00;101434.78;8408115;28;20040;-80
2022/01/30 18:53:51;;;;;;;7.13;1.83;;;9.50;49.60;;;7.83;55.09;101423.00;8395854;28;20035;-81
2022/01/30 18:58:13;;;;;;;6.35;2.20;;;9.40;49.70;;;7.67;54.53;101400.09;8401360;28;20058;-81
2022/01/30 19:02:35;;;;;;;8.45;2.08;;;9.40;49.70;;;7.64;54.57;101394.13;8405849;28;20036;-81
2022/01/30 19:06:56;;;;;;;5.45;2.03;;;9.30;48.70;;;7.80;54.95;101426.53;8399574;28;20031;-81
2022/01/30 19:11:18;;;;;;;6.47;2.08;;;9.40;49.50;;;7.81;54.77;101425.66;8401921;28;20412;-82
2022/01/30 19:15:40;;;;;;;4.78;1.45;;;9.40;48.70;;;7.62;54.81;101401.16;8389571;28;20032;-80
2022/01/30 19:20:05;;;;;;;4.95;1.30;;;9.30;49.20;;;7.78;54.31;101409.28;8398423;28;20379;-81
2022/01/30 19:24:27;;;;;;;7.75;2.05;;;9.30;49.80;;;7.64;54.67;101399.34;8413305;28;20385;-81
2022/01/30 19:28:53;;;;;;;4.70;1.45;;;9.20;49.10;;;7.68;54.49;101407.00;8413167;28;20123;-83
2022/01/30 19:33:15;;;;;;;7.07;2.00;;;9.30;49.30;;;7.59;54.67;101396.03;8379650;28;20047;-80
2022/01/30 19:37:36;;;;;;;8.38;2.20;;;9.30;49.40;;;7.71;54.64;101421.66;8431499;28;20552;-82
2022/01/30 19:41:58;;;;;;;6.18;2.08;;;9.30;49.50;;;7.70;54.35;101409.56;8395252;28;20043;-80
2022/01/30 19:46:23;;;;;;;13.30;1.88;;;9.30;49.50;;;7.75;54.39;101418.06;8417110;28;20473;-81
2022/01/30 19:50:44;;;;;;;5.32;1.60;;;9.10;49.50;;;7.74;54.26;101421.53;8399549;28;20028;-81
2022/01/30 19:55:07;;;;;;;5.30;1.73;;;9.30;49.80;;;7.61;54.42;101396.84;8387761;28;20043;-81
2022/01/30 19:59:29;;;;;;;5.88;1.90;;;9.20;49.60;;;7.70;54.44;101400.00;8396282;28;20392;-81